This is the latest recevied weather packets stored in our database for station/object S54A-11. If no packets are shown the sender has not sent any weather packets the latest 10 day(s).
| Time | Temp. | Humidity | Pressure | Rain* | Wind** | Luminosity | Snow |
|---|---|---|---|---|---|---|---|
| 1788496265 | 14.44° C | 54% | 1021.2 hPa | - | - | - | - |
| 1788495365 | 15° C | 53% | 1021.1 hPa | - | - | - | - |
| 1788494465 | 15° C | 54% | 1021.1 hPa | - | - | - | - |
| 1788493565 | 15° C | 54% | 1021 hPa | - | - | - | - |
| 1788492665 | 15° C | 53% | 1021 hPa | - | - | - | - |
| 1788491764 | 15° C | 52% | 1021 hPa | - | - | - | - |
| 1788489064 | 16.11° C | 51% | 1021.3 hPa | - | - | - | - |
| 1788488164 | 16.11° C | 51% | 1021.2 hPa | - | - | - | - |
| 1788480963 | 17.78° C | 49% | 1021.1 hPa | - | - | - | - |
| 1788480063 | 17.78° C | 49% | 1021 hPa | - | - | - | - |
| 1788471963 | 19.44° C | 46% | 1020.7 hPa | - | - | - | - |
| 1788471063 | 19.44° C | 45% | 1020.6 hPa | - | - | - | - |
| 1788470163 | 19.44° C | 45% | 1020.4 hPa | - | - | - | - |
| 1788465662 | 19.44° C | 44% | 1019.8 hPa | - | - | - | - |
| 1788447661 | 34.44° C | 32% | 1018.8 hPa | - | - | - | - |
| 1788445861 | 33.33° C | 31% | 1018.8 hPa | - | - | - | - |
| 1788442260 | 35° C | 28% | 1019.1 hPa | - | - | - | - |
| 1788441361 | 35° C | 30% | 1019 hPa | - | - | - | - |
| 1788438660 | 35.56° C | 29% | 1019.5 hPa | - | - | - | - |
| 1788437760 | 35.56° C | 29% | 1019.4 hPa | - | - | - | - |
| 1788433259 | 34.44° C | 32% | 1020.2 hPa | - | - | - | - |
| 1788432359 | 34.44° C | 32% | 1020.4 hPa | - | - | - | - |
| 1788431459 | 35° C | 33% | 1020.6 hPa | - | - | - | - |
| 1788430559 | 34.44° C | 35% | 1020.9 hPa | - | - | - | - |
| 1788429659 | 34.44° C | 35% | 1021.3 hPa | - | - | - | - |
* Rain since midnight (hover to see other rain measurements)
** Current wind speed in m/s (hover to see current wind gust speed)